sensor_id;sensor_type;location;lat;lon;timestamp;pressure;altitude;pressure_sealevel;temperature;humidity
79048;BME280;68680;50.764;6.120;2024-01-30T00:02:26;100504.56;;;9.82;nan
79048;BME280;68680;50.764;6.120;2024-01-30T00:04:52;100494.56;;;9.84;nan
79048;BME280;68680;50.764;6.120;2024-01-30T00:07:18;100494.75;;;9.82;nan
79048;BME280;68680;50.764;6.120;2024-01-30T00:09:46;100491.63;;;9.79;nan
79048;BME280;68680;50.764;6.120;2024-01-30T00:12:12;100497.22;;;9.84;nan
79048;BME280;68680;50.764;6.120;2024-01-30T00:14:38;100490.00;;;9.78;nan
79048;BME280;68680;50.764;6.120;2024-01-30T00:17:04;100489.22;;;9.84;nan
79048;BME280;68680;50.764;6.120;2024-01-30T00:19:31;100487.13;;;9.79;nan
79048;BME280;68680;50.764;6.120;2024-01-30T00:21:57;100486.94;;;9.81;nan
79048;BME280;68680;50.764;6.120;2024-01-30T00:24:22;100484.28;;;9.81;nan
79048;BME280;68680;50.764;6.120;2024-01-30T00:26:48;100487.75;;;9.81;nan
79048;BME280;68680;50.764;6.120;2024-01-30T00:29:16;100485.47;;;9.78;nan
79048;BME280;68680;50.764;6.120;2024-01-30T00:31:41;100483.03;;;9.77;nan
79048;BME280;68680;50.764;6.120;2024-01-30T00:34:07;100478.56;;;9.84;nan
79048;BME280;68680;50.764;6.120;2024-01-30T00:36:34;100475.63;;;9.79;nan
79048;BME280;68680;50.764;6.120;2024-01-30T00:39:00;100471.72;;;9.75;nan
79048;BME280;68680;50.764;6.120;2024-01-30T00:41:26;100472.31;;;9.70;nan
79048;BME280;68680;50.764;6.120;2024-01-30T00:43:52;100465.91;;;9.65;nan
79048;BME280;68680;50.764;6.120;2024-01-30T00:46:17;100465.53;;;9.68;nan
79048;BME280;68680;50.764;6.120;2024-01-30T00:48:43;100466.63;;;9.80;nan
79048;BME280;68680;50.764;6.120;2024-01-30T00:51:09;100469.53;;;9.85;nan
79048;BME280;68680;50.764;6.120;2024-01-30T00:53:36;100470.41;;;9.92;nan
79048;BME280;68680;50.764;6.120;2024-01-30T00:56:02;100464.44;;;9.90;nan
79048;BME280;68680;50.764;6.120;2024-01-30T00:58:28;100463.47;;;9.98;nan
79048;BME280;68680;50.764;6.120;2024-01-30T01:00:54;100462.88;;;10.02;nan
79048;BME280;68680;50.764;6.120;2024-01-30T01:03:19;100460.50;;;10.07;nan
79048;BME280;68680;50.764;6.120;2024-01-30T01:05:45;100460.72;;;10.12;nan
79048;BME280;68680;50.764;6.120;2024-01-30T01:08:11;100459.97;;;10.18;nan
79048;BME280;68680;50.764;6.120;2024-01-30T01:10:38;100464.66;;;10.16;nan
79048;BME280;68680;50.764;6.120;2024-01-30T01:13:04;100463.47;;;10.19;nan
79048;BME280;68680;50.764;6.120;2024-01-30T01:15:30;100462.00;;;10.16;nan
79048;BME280;68680;50.764;6.120;2024-01-30T01:17:56;100460.78;;;10.19;nan
79048;BME280;68680;50.764;6.120;2024-01-30T01:20:21;100467.75;;;10.20;nan
79048;BME280;68680;50.764;6.120;2024-01-30T01:22:47;100463.06;;;10.22;nan
79048;BME280;68680;50.764;6.120;2024-01-30T01:25:13;100464.06;;;10.21;nan
79048;BME280;68680;50.764;6.120;2024-01-30T01:27:40;100459.56;;;10.21;nan
79048;BME280;68680;50.764;6.120;2024-01-30T01:30:09;100464.09;;;10.27;nan
79048;BME280;68680;50.764;6.120;2024-01-30T01:32:35;100465.13;;;10.26;nan
79048;BME280;68680;50.764;6.120;2024-01-30T01:35:01;100454.88;;;10.23;nan
79048;BME280;68680;50.764;6.120;2024-01-30T01:37:27;100453.25;;;10.29;nan
79048;BME280;68680;50.764;6.120;2024-01-30T01:39:53;100457.34;;;10.32;nan
79048;BME280;68680;50.764;6.120;2024-01-30T01:42:19;100459.44;;;10.36;nan
79048;BME280;68680;50.764;6.120;2024-01-30T01:44:46;100456.09;;;10.27;nan
79048;BME280;68680;50.764;6.120;2024-01-30T01:47:12;100462.94;;;10.37;nan
79048;BME280;68680;50.764;6.120;2024-01-30T01:49:38;100450.19;;;10.32;nan
79048;BME280;68680;50.764;6.120;2024-01-30T01:52:05;100458.78;;;10.27;nan
79048;BME280;68680;50.764;6.120;2024-01-30T01:54:32;100460.19;;;10.23;nan
79048;BME280;68680;50.764;6.120;2024-01-30T01:56:58;100461.22;;;10.22;nan
79048;BME280;68680;50.764;6.120;2024-01-30T01:59:25;100463.66;;;10.17;nan
79048;BME280;68680;50.764;6.120;2024-01-30T02:01:55;100466.88;;;10.13;nan
79048;BME280;68680;50.764;6.120;2024-01-30T02:04:21;100461.59;;;10.19;nan
79048;BME280;68680;50.764;6.120;2024-01-30T02:06:47;100462.41;;;10.20;nan
79048;BME280;68680;50.764;6.120;2024-01-30T02:09:13;100462.88;;;10.23;nan
79048;BME280;68680;50.764;6.120;2024-01-30T02:11:38;100457.00;;;10.07;nan
79048;BME280;68680;50.764;6.120;2024-01-30T02:14:05;100453.88;;;10.03;nan
79048;BME280;68680;50.764;6.120;2024-01-30T02:16:31;100454.25;;;9.94;nan
79048;BME280;68680;50.764;6.120;2024-01-30T02:18:58;100454.28;;;10.00;nan
79048;BME280;68680;50.764;6.120;2024-01-30T02:21:25;100448.19;;;10.06;nan
79048;BME280;68680;50.764;6.120;2024-01-30T02:23:54;100450.19;;;10.04;nan
79048;BME280;68680;50.764;6.120;2024-01-30T02:26:20;100445.41;;;9.93;nan
79048;BME280;68680;50.764;6.120;2024-01-30T02:28:46;100450.09;;;9.91;nan
79048;BME280;68680;50.764;6.120;2024-01-30T02:31:12;100447.91;;;9.95;nan
79048;BME280;68680;50.764;6.120;2024-01-30T02:33:37;100444.63;;;9.99;nan
79048;BME280;68680;50.764;6.120;2024-01-30T02:36:04;100442.22;;;10.04;nan
79048;BME280;68680;50.764;6.120;2024-01-30T02:38:31;100438.34;;;10.13;nan
79048;BME280;68680;50.764;6.120;2024-01-30T02:40:57;100441.00;;;10.07;nan
79048;BME280;68680;50.764;6.120;2024-01-30T02:43:23;100437.28;;;10.08;nan
79048;BME280;68680;50.764;6.120;2024-01-30T02:45:49;100432.25;;;10.19;nan
79048;BME280;68680;50.764;6.120;2024-01-30T02:48:14;100434.47;;;10.16;nan
79048;BME280;68680;50.764;6.120;2024-01-30T02:50:40;100435.56;;;10.21;nan
79048;BME280;68680;50.764;6.120;2024-01-30T02:53:06;100426.63;;;10.36;nan
79048;BME280;68680;50.764;6.120;2024-01-30T02:55:33;100422.72;;;10.38;nan
79048;BME280;68680;50.764;6.120;2024-01-30T02:57:59;100424.38;;;10.39;nan
79048;BME280;68680;50.764;6.120;2024-01-30T03:00:25;100420.28;;;10.43;nan
79048;BME280;68680;50.764;6.120;2024-01-30T03:02:51;100414.13;;;10.43;nan
79048;BME280;68680;50.764;6.120;2024-01-30T03:05:17;100415.31;;;10.34;nan
79048;BME280;68680;50.764;6.120;2024-01-30T03:07:42;100410.66;;;10.42;nan
79048;BME280;68680;50.764;6.120;2024-01-30T03:10:09;100409.59;;;10.43;nan
79048;BME280;68680;50.764;6.120;2024-01-30T03:12:36;100420.09;;;10.45;nan
79048;BME280;68680;50.764;6.120;2024-01-30T03:15:02;100411.69;;;10.48;nan
79048;BME280;68680;50.764;6.120;2024-01-30T03:17:28;100413.75;;;10.52;nan
79048;BME280;68680;50.764;6.120;2024-01-30T03:19:53;100424.41;;;10.46;nan
79048;BME280;68680;50.764;6.120;2024-01-30T03:22:19;100426.06;;;10.47;nan
79048;BME280;68680;50.764;6.120;2024-01-30T03:24:45;100422.75;;;10.45;nan
79048;BME280;68680;50.764;6.120;2024-01-30T03:27:11;100430.53;;;10.40;nan
79048;BME280;68680;50.764;6.120;2024-01-30T03:29:38;100426.22;;;10.39;nan
79048;BME280;68680;50.764;6.120;2024-01-30T03:32:05;100426.19;;;10.32;nan
79048;BME280;68680;50.764;6.120;2024-01-30T03:34:31;100420.28;;;10.37;nan
79048;BME280;68680;50.764;6.120;2024-01-30T03:36:56;100420.69;;;10.40;nan
79048;BME280;68680;50.764;6.120;2024-01-30T03:39:23;100427.00;;;10.33;nan
79048;BME280;68680;50.764;6.120;2024-01-30T03:41:49;100423.13;;;10.35;nan
79048;BME280;68680;50.764;6.120;2024-01-30T03:44:15;100422.31;;;10.35;nan
79048;BME280;68680;50.764;6.120;2024-01-30T03:46:42;100419.38;;;10.23;nan
79048;BME280;68680;50.764;6.120;2024-01-30T03:49:09;100415.09;;;10.28;nan
79048;BME280;68680;50.764;6.120;2024-01-30T03:51:35;100418.38;;;10.24;nan
79048;BME280;68680;50.764;6.120;2024-01-30T03:54:01;100424.72;;;10.23;nan
79048;BME280;68680;50.764;6.120;2024-01-30T03:56:26;100421.84;;;10.31;nan
79048;BME280;68680;50.764;6.120;2024-01-30T03:58:52;100419.38;;;10.23;nan
79048;BME280;68680;50.764;6.120;2024-01-30T04:01:18;100433.13;;;10.26;nan
79048;BME280;68680;50.764;6.120;2024-01-30T04:03:45;100422.94;;;10.37;nan
79048;BME280;68680;50.764;6.120;2024-01-30T04:06:11;100423.31;;;10.34;nan
79048;BME280;68680;50.764;6.120;2024-01-30T04:08:37;100416.97;;;10.35;nan
79048;BME280;68680;50.764;6.120;2024-01-30T04:11:04;100415.09;;;10.28;nan
79048;BME280;68680;50.764;6.120;2024-01-30T04:13:30;100418.16;;;10.25;nan
79048;BME280;68680;50.764;6.120;2024-01-30T04:15:56;100417.09;;;10.20;nan
79048;BME280;68680;50.764;6.120;2024-01-30T04:18:21;100411.41;;;10.29;nan
79048;BME280;68680;50.764;6.120;2024-01-30T04:20:49;100412.06;;;10.38;nan
79048;BME280;68680;50.764;6.120;2024-01-30T04:23:14;100409.97;;;10.27;nan
79048;BME280;68680;50.764;6.120;2024-01-30T04:25:40;100407.25;;;10.20;nan
79048;BME280;68680;50.764;6.120;2024-01-30T04:28:06;100393.13;;;10.26;nan
79048;BME280;68680;50.764;6.120;2024-01-30T04:30:32;100393.97;;;10.27;nan
79048;BME280;68680;50.764;6.120;2024-01-30T04:32:57;100401.75;;;10.28;nan
79048;BME280;68680;50.764;6.120;2024-01-30T04:35:23;100396.47;;;10.35;nan
79048;BME280;68680;50.764;6.120;2024-01-30T04:37:52;100396.50;;;10.42;nan
79048;BME280;68680;50.764;6.120;2024-01-30T04:40:18;100405.06;;;10.37;nan
79048;BME280;68680;50.764;6.120;2024-01-30T04:42:43;100404.69;;;10.40;nan
79048;BME280;68680;50.764;6.120;2024-01-30T04:45:09;100398.16;;;10.49;nan
79048;BME280;68680;50.764;6.120;2024-01-30T04:47:35;100395.25;;;10.44;nan
79048;BME280;68680;50.764;6.120;2024-01-30T04:50:01;100402.22;;;10.39;nan
79048;BME280;68680;50.764;6.120;2024-01-30T04:52:27;100412.84;;;10.32;nan
79048;BME280;68680;50.764;6.120;2024-01-30T04:54:54;100405.06;;;10.31;nan
79048;BME280;68680;50.764;6.120;2024-01-30T04:57:20;100402.63;;;10.36;nan
79048;BME280;68680;50.764;6.120;2024-01-30T04:59:46;100406.69;;;10.32;nan
79048;BME280;68680;50.764;6.120;2024-01-30T05:02:12;100388.50;;;10.42;nan
79048;BME280;68680;50.764;6.120;2024-01-30T05:04:38;100402.41;;;10.31;nan
79048;BME280;68680;50.764;6.120;2024-01-30T05:07:04;100409.97;;;10.27;nan
79048;BME280;68680;50.764;6.120;2024-01-30T05:09:30;100407.97;;;10.36;nan
79048;BME280;68680;50.764;6.120;2024-01-30T05:11:57;100410.63;;;10.36;nan
79048;BME280;68680;50.764;6.120;2024-01-30T05:14:23;100400.59;;;10.44;nan
79048;BME280;68680;50.764;6.120;2024-01-30T05:16:49;100411.59;;;10.28;nan
79048;BME280;68680;50.764;6.120;2024-01-30T05:19:15;100398.66;;;10.25;nan
79048;BME280;68680;50.764;6.120;2024-01-30T05:21:41;100398.28;;;10.28;nan
79048;BME280;68680;50.764;6.120;2024-01-30T05:24:07;100396.44;;;10.28;nan
79048;BME280;68680;50.764;6.120;2024-01-30T05:26:33;100391.06;;;10.22;nan
79048;BME280;68680;50.764;6.120;2024-01-30T05:29:00;100391.09;;;10.28;nan
79048;BME280;68680;50.764;6.120;2024-01-30T05:31:26;100390.09;;;10.29;nan
79048;BME280;68680;50.764;6.120;2024-01-30T05:33:52;100376.75;;;10.29;nan
79048;BME280;68680;50.764;6.120;2024-01-30T05:36:17;100380.03;;;10.32;nan
79048;BME280;68680;50.764;6.120;2024-01-30T05:38:43;100370.59;;;10.29;nan
79048;BME280;68680;50.764;6.120;2024-01-30T05:41:09;100373.22;;;10.22;nan
79048;BME280;68680;50.764;6.120;2024-01-30T05:43:35;100364.81;;;10.25;nan
79048;BME280;68680;50.764;6.120;2024-01-30T05:46:03;100371.66;;;10.35;nan
79048;BME280;68680;50.764;6.120;2024-01-30T05:48:28;100366.72;;;10.38;nan
79048;BME280;68680;50.764;6.120;2024-01-30T05:50:54;100366.53;;;10.40;nan
79048;BME280;68680;50.764;6.120;2024-01-30T05:53:20;100356.50;;;10.42;nan
79048;BME280;68680;50.764;6.120;2024-01-30T05:55:46;100353.44;;;10.51;nan
79048;BME280;68680;50.764;6.120;2024-01-30T05:58:12;100358.16;;;10.56;nan
79048;BME280;68680;50.764;6.120;2024-01-30T06:00:38;100356.13;;;10.58;nan
79048;BME280;68680;50.764;6.120;2024-01-30T06:03:05;100358.16;;;10.56;nan
79048;BME280;68680;50.764;6.120;2024-01-30T06:05:31;100359.19;;;10.55;nan
79048;BME280;68680;50.764;6.120;2024-01-30T06:07:57;100356.94;;;10.58;nan
79048;BME280;68680;50.764;6.120;2024-01-30T06:10:22;100359.41;;;10.53;nan
79048;BME280;68680;50.764;6.120;2024-01-30T06:12:48;100357.97;;;10.57;nan
79048;BME280;68680;50.764;6.120;2024-01-30T06:15:14;100355.31;;;10.64;nan
79048;BME280;68680;50.764;6.120;2024-01-30T06:17:40;100368.03;;;10.62;nan
79048;BME280;68680;50.764;6.120;2024-01-30T06:20:08;100366.59;;;10.66;nan
79048;BME280;68680;50.764;6.120;2024-01-30T06:22:34;100354.91;;;10.74;nan
79048;BME280;68680;50.764;6.120;2024-01-30T06:24:59;100370.56;;;10.83;nan
79048;BME280;68680;50.764;6.120;2024-01-30T06:27:25;100367.44;;;10.73;nan
79048;BME280;68680;50.764;6.120;2024-01-30T06:29:51;100356.97;;;10.72;nan
79048;BME280;68680;50.764;6.120;2024-01-30T06:32:17;100365.38;;;10.75;nan
79048;BME280;68680;50.764;6.120;2024-01-30T06:34:43;100370.56;;;10.83;nan
79048;BME280;68680;50.764;6.120;2024-01-30T06:37:10;100369.91;;;10.81;nan
79048;BME280;68680;50.764;6.120;2024-01-30T06:39:36;100363.13;;;10.85;nan
79048;BME280;68680;50.764;6.120;2024-01-30T06:42:02;100364.16;;;10.84;nan
79048;BME280;68680;50.764;6.120;2024-01-30T06:44:28;100367.88;;;10.83;nan
79048;BME280;68680;50.764;6.120;2024-01-30T06:46:54;100368.66;;;10.84;nan
79048;BME280;68680;50.764;6.120;2024-01-30T06:49:20;100373.22;;;10.83;nan
79048;BME280;68680;50.764;6.120;2024-01-30T06:51:45;100367.44;;;10.80;nan
79048;BME280;68680;50.764;6.120;2024-01-30T06:54:13;100363.94;;;10.79;nan
79048;BME280;68680;50.764;6.120;2024-01-30T06:56:39;100354.94;;;10.80;nan
79048;BME280;68680;50.764;6.120;2024-01-30T06:59:04;100358.81;;;10.84;nan
79048;BME280;68680;50.764;6.120;2024-01-30T07:01:30;100370.75;;;10.82;nan
79048;BME280;68680;50.764;6.120;2024-01-30T07:03:57;100368.28;;;10.93;nan
79048;BME280;68680;50.764;6.120;2024-01-30T07:06:23;100367.06;;;10.83;nan
79048;BME280;68680;50.764;6.120;2024-01-30T07:08:49;100374.44;;;10.87;nan
79048;BME280;68680;50.764;6.120;2024-01-30T07:11:20;100371.78;;;10.87;nan
79048;BME280;68680;50.764;6.120;2024-01-30T07:13:46;100379.59;;;10.89;nan
79048;BME280;68680;50.764;6.120;2024-01-30T07:16:12;100386.34;;;10.91;nan
79048;BME280;68680;50.764;6.120;2024-01-30T07:18:38;100376.91;;;10.89;nan
79048;BME280;68680;50.764;6.120;2024-01-30T07:21:04;100382.44;;;10.87;nan
79048;BME280;68680;50.764;6.120;2024-01-30T07:23:30;100379.38;;;10.90;nan
79048;BME280;68680;50.764;6.120;2024-01-30T07:25:56;100385.97;;;10.94;nan
79048;BME280;68680;50.764;6.120;2024-01-30T07:28:25;100390.06;;;10.97;nan
79048;BME280;68680;50.764;6.120;2024-01-30T07:30:51;100384.72;;;10.97;nan
79048;BME280;68680;50.764;6.120;2024-01-30T07:33:17;100393.38;;;11.05;nan
79048;BME280;68680;50.764;6.120;2024-01-30T07:35:43;100399.94;;;11.09;nan
79048;BME280;68680;50.764;6.120;2024-01-30T07:38:09;100390.88;;;10.97;nan
79048;BME280;68680;50.764;6.120;2024-01-30T07:40:35;100407.94;;;11.03;nan
79048;BME280;68680;50.764;6.120;2024-01-30T07:43:00;100391.28;;;11.07;nan
79048;BME280;68680;50.764;6.120;2024-01-30T07:45:28;100401.16;;;11.13;nan
79048;BME280;68680;50.764;6.120;2024-01-30T07:47:53;100405.69;;;11.20;nan
79048;BME280;68680;50.764;6.120;2024-01-30T07:50:19;100407.75;;;11.11;nan
79048;BME280;68680;50.764;6.120;2024-01-30T07:52:45;100399.50;;;11.12;nan
79048;BME280;68680;50.764;6.120;2024-01-30T07:55:11;100394.81;;;11.21;nan
79048;BME280;68680;50.764;6.120;2024-01-30T07:57:39;100403.81;;;11.13;nan
79048;BME280;68680;50.764;6.120;2024-01-30T08:00:06;100405.66;;;11.13;nan
79048;BME280;68680;50.764;6.120;2024-01-30T08:02:33;100408.97;;;11.08;nan
79048;BME280;68680;50.764;6.120;2024-01-30T08:04:59;100416.34;;;11.13;nan
79048;BME280;68680;50.764;6.120;2024-01-30T08:07:25;100420.88;;;11.19;nan
79048;BME280;68680;50.764;6.120;2024-01-30T08:09:51;100425.41;;;11.12;nan
79048;BME280;68680;50.764;6.120;2024-01-30T08:12:17;100427.88;;;11.20;nan
79048;BME280;68680;50.764;6.120;2024-01-30T08:14:43;100425.81;;;11.22;nan
79048;BME280;68680;50.764;6.120;2024-01-30T08:17:08;100421.91;;;11.11;nan
79048;BME280;68680;50.764;6.120;2024-01-30T08:19:36;100439.34;;;11.07;nan
79048;BME280;68680;50.764;6.120;2024-01-30T08:22:02;100433.63;;;11.17;nan
79048;BME280;68680;50.764;6.120;2024-01-30T08:24:27;100435.66;;;11.15;nan
79048;BME280;68680;50.764;6.120;2024-01-30T08:26:53;100428.47;;;11.16;nan
79048;BME280;68680;50.764;6.120;2024-01-30T08:29:19;100431.56;;;11.19;nan
79048;BME280;68680;50.764;6.120;2024-01-30T08:31:45;100432.00;;;11.23;nan
79048;BME280;68680;50.764;6.120;2024-01-30T08:34:11;100428.31;;;11.24;nan
79048;BME280;68680;50.764;6.120;2024-01-30T08:36:38;100434.25;;;11.26;nan
79048;BME280;68680;50.764;6.120;2024-01-30T08:39:04;100436.31;;;11.24;nan
79048;BME280;68680;50.764;6.120;2024-01-30T08:41:30;100441.84;;;11.29;nan
79048;BME280;68680;50.764;6.120;2024-01-30T08:43:55;100439.38;;;11.27;nan
79048;BME280;68680;50.764;6.120;2024-01-30T08:46:21;100448.44;;;11.33;nan
79048;BME280;68680;50.764;6.120;2024-01-30T08:48:47;100460.97;;;11.39;nan
79048;BME280;68680;50.764;6.120;2024-01-30T08:51:13;100462.81;;;11.45;nan
79048;BME280;68680;50.764;6.120;2024-01-30T08:53:40;100460.16;;;11.45;nan
79048;BME280;68680;50.764;6.120;2024-01-30T08:56:07;100472.88;;;11.43;nan
79048;BME280;68680;50.764;6.120;2024-01-30T08:58:33;100461.56;;;11.47;nan
79048;BME280;68680;50.764;6.120;2024-01-30T09:00:59;100471.88;;;11.57;nan
79048;BME280;68680;50.764;6.120;2024-01-30T09:03:24;100476.00;;;11.53;nan
79048;BME280;68680;50.764;6.120;2024-01-30T09:05:50;100482.75;;;11.69;nan
79048;BME280;68680;50.764;6.120;2024-01-30T09:08:16;100492.03;;;11.79;nan
79048;BME280;68680;50.764;6.120;2024-01-30T09:10:43;100493.88;;;11.79;nan
79048;BME280;68680;50.764;6.120;2024-01-30T09:13:09;100494.31;;;11.76;nan
79048;BME280;68680;50.764;6.120;2024-01-30T09:15:35;100504.38;;;11.87;nan
79048;BME280;68680;50.764;6.120;2024-01-30T09:18:01;100503.13;;;11.96;nan
79048;BME280;68680;50.764;6.120;2024-01-30T09:20:27;100498.81;;;12.02;nan
79048;BME280;68680;50.764;6.120;2024-01-30T09:22:53;100507.44;;;12.10;nan
79048;BME280;68680;50.764;6.120;2024-01-30T09:25:18;100505.78;;;12.16;nan
79048;BME280;68680;50.764;6.120;2024-01-30T09:27:46;100512.78;;;12.17;nan
79048;BME280;68680;50.764;6.120;2024-01-30T09:30:13;100511.72;;;12.18;nan
79048;BME280;68680;50.764;6.120;2024-01-30T09:32:39;100512.16;;;12.34;nan
79048;BME280;68680;50.764;6.120;2024-01-30T09:35:06;100525.06;;;12.44;nan
79048;BME280;68680;50.764;6.120;2024-01-30T09:37:32;100530.00;;;12.41;nan
79048;BME280;68680;50.764;6.120;2024-01-30T09:39:58;100534.31;;;12.55;nan
79048;BME280;68680;50.764;6.120;2024-01-30T09:42:30;100537.63;;;12.50;nan
79048;BME280;68680;50.764;6.120;2024-01-30T09:45:00;100528.16;;;12.41;nan
79048;BME280;68680;50.764;6.120;2024-01-30T09:47:27;100531.47;;;12.37;nan
79048;BME280;68680;50.764;6.120;2024-01-30T09:49:53;100540.94;;;12.39;nan
79048;BME280;68680;50.764;6.120;2024-01-30T09:52:19;100538.06;;;12.34;nan
79048;BME280;68680;50.764;6.120;2024-01-30T09:54:45;100537.63;;;12.44;nan
79048;BME280;68680;50.764;6.120;2024-01-30T09:57:12;100544.84;;;12.37;nan
79048;BME280;68680;50.764;6.120;2024-01-30T09:59:38;100535.59;;;12.39;nan
79048;BME280;68680;50.764;6.120;2024-01-30T10:02:06;100536.03;;;12.23;nan
79048;BME280;68680;50.764;6.120;2024-01-30T10:04:33;100527.75;;;12.38;nan
79048;BME280;68680;50.764;6.120;2024-01-30T10:07:01;100533.94;;;12.31;nan
79048;BME280;68680;50.764;6.120;2024-01-30T10:09:27;100523.25;;;12.31;nan
79048;BME280;68680;50.764;6.120;2024-01-30T10:11:53;100524.88;;;12.39;nan
79048;BME280;68680;50.764;6.120;2024-01-30T10:14:19;100526.50;;;12.47;nan
79048;BME280;68680;50.764;6.120;2024-01-30T10:16:46;100519.13;;;12.29;nan
79048;BME280;68680;50.764;6.120;2024-01-30T10:19:13;100518.28;;;12.35;nan
79048;BME280;68680;50.764;6.120;2024-01-30T10:21:40;100521.19;;;12.27;nan
79048;BME280;68680;50.764;6.120;2024-01-30T10:24:06;100521.22;;;12.14;nan
79048;BME280;68680;50.764;6.120;2024-01-30T10:26:32;100523.06;;;12.13;nan
79048;BME280;68680;50.764;6.120;2024-01-30T10:28:58;100529.03;;;12.02;nan
79048;BME280;68680;50.764;6.120;2024-01-30T10:31:25;100524.91;;;12.13;nan
79048;BME280;68680;50.764;6.120;2024-01-30T10:33:51;100523.88;;;12.14;nan
79048;BME280;68680;50.764;6.120;2024-01-30T10:36:18;100523.88;;;12.07;nan
79048;BME280;68680;50.764;6.120;2024-01-30T10:38:49;100526.75;;;12.12;nan
79048;BME280;68680;50.764;6.120;2024-01-30T10:41:24;100524.91;;;12.06;nan
79048;BME280;68680;50.764;6.120;2024-01-30T10:44:02;100528.41;;;12.07;nan
79048;BME280;68680;50.764;6.120;2024-01-30T10:46:35;100529.03;;;12.22;nan
79048;BME280;68680;50.764;6.120;2024-01-30T10:49:04;100537.06;;;12.22;nan
79048;BME280;68680;50.764;6.120;2024-01-30T10:51:34;100541.97;;;12.31;nan
79048;BME280;68680;50.764;6.120;2024-01-30T10:54:01;100537.00;;;12.35;nan
79048;BME280;68680;50.764;6.120;2024-01-30T10:56:29;100536.41;;;12.33;nan
79048;BME280;68680;50.764;6.120;2024-01-30T10:58:55;100532.53;;;12.16;nan
79048;BME280;68680;50.764;6.120;2024-01-30T11:01:22;100534.59;;;12.14;nan
79048;BME280;68680;50.764;6.120;2024-01-30T11:03:50;100547.75;;;12.15;nan
79048;BME280;68680;50.764;6.120;2024-01-30T11:06:17;100543.88;;;12.11;nan
79048;BME280;68680;50.764;6.120;2024-01-30T11:08:44;100548.97;;;12.13;nan
79048;BME280;68680;50.764;6.120;2024-01-30T11:11:10;100550.00;;;12.25;nan
79048;BME280;68680;50.764;6.120;2024-01-30T11:13:36;100548.16;;;12.32;nan
79048;BME280;68680;50.764;6.120;2024-01-30T11:16:03;100542.41;;;12.28;nan
79048;BME280;68680;50.764;6.120;2024-01-30T11:18:31;100541.34;;;12.29;nan
79048;BME280;68680;50.764;6.120;2024-01-30T11:20:58;100543.44;;;12.27;nan
79048;BME280;68680;50.764;6.120;2024-01-30T11:23:26;100529.22;;;12.20;nan
79048;BME280;68680;50.764;6.120;2024-01-30T11:25:54;100540.13;;;12.12;nan
79048;BME280;68680;50.764;6.120;2024-01-30T11:28:21;100544.69;;;11.92;nan
79048;BME280;68680;50.764;6.120;2024-01-30T11:30:48;100526.97;;;11.78;nan
79048;BME280;68680;50.764;6.120;2024-01-30T11:33:14;100525.16;;;11.91;nan
79048;BME280;68680;50.764;6.120;2024-01-30T11:35:42;100524.94;;;11.93;nan
79048;BME280;68680;50.764;6.120;2024-01-30T11:38:09;100516.94;;;12.00;nan
79048;BME280;68680;50.764;6.120;2024-01-30T11:40:38;100532.75;;;11.88;nan
79048;BME280;68680;50.764;6.120;2024-01-30T11:43:07;100525.53;;;11.88;nan
79048;BME280;68680;50.764;6.120;2024-01-30T11:45:34;100531.13;;;11.93;nan
79048;BME280;68680;50.764;6.120;2024-01-30T11:48:01;100538.91;;;11.88;nan
79048;BME280;68680;50.764;6.120;2024-01-30T11:50:27;100542.41;;;11.89;nan
79048;BME280;68680;50.764;6.120;2024-01-30T11:52:54;100542.59;;;11.94;nan
79048;BME280;68680;50.764;6.120;2024-01-30T11:55:20;100544.28;;;11.82;nan
79048;BME280;68680;50.764;6.120;2024-01-30T11:57:46;100547.53;;;11.77;nan
79048;BME280;68680;50.764;6.120;2024-01-30T12:00:18;100538.69;;;11.77;nan
79048;BME280;68680;50.764;6.120;2024-01-30T12:02:49;100553.28;;;11.68;nan
79048;BME280;68680;50.764;6.120;2024-01-30T12:05:15;100565.03;;;11.73;nan
79048;BME280;68680;50.764;6.120;2024-01-30T12:07:44;100550.19;;;11.64;nan
79048;BME280;68680;50.764;6.120;2024-01-30T12:10:10;100536.41;;;11.61;nan
79048;BME280;68680;50.764;6.120;2024-01-30T12:12:37;100549.31;;;11.44;nan
79048;BME280;68680;50.764;6.120;2024-01-30T12:15:03;100545.22;;;11.41;nan
79048;BME280;68680;50.764;6.120;2024-01-30T12:17:33;100551.53;;;11.21;nan
79048;BME280;68680;50.764;6.120;2024-01-30T12:20:06;100542.91;;;11.25;nan
79048;BME280;68680;50.764;6.120;2024-01-30T12:22:36;100537.19;;;11.35;nan
79048;BME280;68680;50.764;6.120;2024-01-30T12:25:04;100540.84;;;11.21;nan
79048;BME280;68680;50.764;6.120;2024-01-30T12:27:30;100545.41;;;11.33;nan
79048;BME280;68680;50.764;6.120;2024-01-30T12:29:56;100540.69;;;11.35;nan
79048;BME280;68680;50.764;6.120;2024-01-30T12:32:23;100553.19;;;11.28;nan
79048;BME280;68680;50.764;6.120;2024-01-30T12:34:50;100554.44;;;11.32;nan
79048;BME280;68680;50.764;6.120;2024-01-30T12:37:16;100551.13;;;11.30;nan
79048;BME280;68680;50.764;6.120;2024-01-30T12:39:42;100538.22;;;11.34;nan
79048;BME280;68680;50.764;6.120;2024-01-30T12:42:08;100556.66;;;11.22;nan
79048;BME280;68680;50.764;6.120;2024-01-30T12:44:34;100552.97;;;11.17;nan
79048;BME280;68680;50.764;6.120;2024-01-30T12:47:03;100548.91;;;11.34;nan
79048;BME280;68680;50.764;6.120;2024-01-30T12:49:29;100555.69;;;11.49;nan
79048;BME280;68680;50.764;6.120;2024-01-30T12:51:56;100547.47;;;11.44;nan
79048;BME280;68680;50.764;6.120;2024-01-30T12:54:24;100546.25;;;11.47;nan
79048;BME280;68680;50.764;6.120;2024-01-30T12:56:49;100556.28;;;11.32;nan
79048;BME280;68680;50.764;6.120;2024-01-30T12:59:16;100559.38;;;11.29;nan
79048;BME280;68680;50.764;6.120;2024-01-30T13:01:42;100556.09;;;11.40;nan
79048;BME280;68680;50.764;6.120;2024-01-30T13:04:08;100563.44;;;11.25;nan
79048;BME280;68680;50.764;6.120;2024-01-30T13:06:33;100565.50;;;11.23;nan
79048;BME280;68680;50.764;6.120;2024-01-30T13:09:01;100565.72;;;11.28;nan